• Join FlightAware (Why Join?)
  • Login
  • US Flag 
06:27PM EDT


 

Airport Tracker/Info


-or-


 

Live Flight TrackerFlight Track Log ✈ ASQ5272 ✈ 04-Aug-2013 ✈ KATL - KDAL

Flight Track Log - Related Links

Times and Time Zones

All times are in EDT time to prevent confusion due to time zone crossing. See the ASQ5272 flight status page for this flight to view local times or setup timezone preferences in your user account.

Time Position Orientation Groundspeed Altitude Reporting Facility
EDT Latitude Longitude Course Direction KTS MPH feet Rate Location/Type
02:02PM 33.6494 -84.4806 252° West 421 484 2,300  Level Atlanta Center
02:03PM 33.6658 -84.5656 283° West 279 321 3,900 2,040 Climbing Atlanta Center
02:04PM 33.6800 -84.6503 281° West 274 315 6,400 2,400 Climbing Atlanta Center
02:05PM 33.6961 -84.7403 282° West 302 348 8,700 1,800 Climbing Atlanta Center
02:06PM 33.6914 -84.8478 267° West 307 353 10,100 1,200 Climbing Atlanta Center
02:07PM 33.7881 -84.6600 252° West  Level FlightAware Approximate
02:07PM 33.6781 -84.9650 262° West 331 381 11,100  Level Atlanta Center
02:08PM 33.6667 -85.0847 264° West 354 407 12,100 960 Climbing Atlanta Center
02:09PM 33.6508 -85.2117 262° West 370 426 13,100 960 Climbing Atlanta Center
02:10PM 33.6517 -85.3389 270° West 389 448 14,100 960 Climbing Atlanta Center
02:11PM 33.6544 -85.4714 271° West 389 448 15,100 960 Climbing Atlanta Center
02:12PM 33.6717 -85.5989 279° West 389 448 16,100 1,020 Climbing Atlanta Center
02:13PM 33.6950 -85.7242 283° West 389 448 17,200 900 Climbing Atlanta Center
02:14PM 33.7164 -85.8319 283° West 384 442 18,000 900 Climbing Atlanta Center
02:15PM 33.7375 -85.9547 282° West 379 436 19,000 900 Climbing Atlanta Center
02:16PM 33.7564 -86.0778 280° West 379 436 19,800 780 Climbing Atlanta Center
02:17PM 33.7794 -86.2031 283° West 374 430 20,600 840 Climbing Atlanta Center
02:18PM 33.8022 -86.3261 283° West 374 430 21,500 840 Climbing Atlanta Center
02:19PM 33.8250 -86.4519 282° West 379 436 22,300 780 Climbing Atlanta Center
02:20PM 33.8453 -86.5775 281° West 384 442 23,100 780 Climbing Atlanta Center
02:21PM 33.8656 -86.7031 281° West 384 442 23,900 780 Climbing Atlanta Center
02:22PM 33.8881 -86.8264 282° West 384 442 24,700 780 Climbing Atlanta Center
02:23PM 33.9097 -86.9622 281° West 379 436 25,500 660 Climbing Atlanta Center
02:24PM 33.9297 -87.0856 281° West 379 436 26,100 600 Climbing Atlanta Center
02:25PM 33.9517 -87.2117 282° West 379 436 26,700 540 Climbing Atlanta Center
02:26PM 33.9822 -87.3711 283° West 374 430 27,500 540 Climbing Memphis Center
02:27PM 34.0019 -87.4958 281° West 379 436 28,000 240 Climbing Memphis Center
02:28PM 34.0217 -87.6281 280° West 394 453 28,000  Level Memphis Center
02:29PM 34.0453 -87.7600 282° West 401 461 28,000  Level Memphis Center
02:30PM 34.0669 -87.9000 281° West 420 483 28,000  Level Memphis Center
02:31PM 34.0883 -88.0422 280° West 426 490 28,000  Level Memphis Center
02:32PM 34.1094 -88.1672 282° West 431 496 28,000  Level Memphis Center
02:33PM 34.1331 -88.3322 280° West 438 504 28,000  Level Memphis Center
02:34PM 34.1542 -88.4747 280° West 438 504 28,000  Level Memphis Center
02:35PM 34.1772 -88.6172 281° West 443 510 28,000  Level Memphis Center
02:36PM 34.2019 -88.7625 282° West 443 510 28,000  Level Memphis Center
02:37PM 34.2247 -88.9128 280° West 436 502 28,000  Level Memphis Center
02:38PM 34.2450 -89.0556 280° West 430 495 28,000  Level Memphis Center
02:39PM 34.2653 -89.1961 280° West 430 495 28,000  Level Memphis Center
02:40PM 34.2831 -89.3214 280° West 430 495 28,000  Level Memphis Center
02:41PM 34.3050 -89.4619 281° West 425 489 28,000  Level Memphis Center
02:42PM 34.3247 -89.6000 280° West 425 489 28,000  Level Memphis Center
02:43PM 34.3464 -89.7433 280° West 425 489 28,000  Level Memphis Center
02:44PM 34.3639 -89.8817 279° West 425 489 28,000  Level Memphis Center
02:45PM 34.3872 -90.0350 280° West 425 489 28,000  Level Memphis Center
02:46PM 34.4064 -90.1708 280° West 425 489 28,000  Level Memphis Center
02:47PM 34.4272 -90.3094 280° West 425 489 28,000  Level Memphis Center
02:48PM 34.4461 -90.4453 280° West 420 483 28,000  Level Memphis Center
02:49PM 34.4667 -90.5789 281° West 413 475 28,000  Level Memphis Center
02:50PM 34.4853 -90.7150 279° West 413 475 28,000  Level Memphis Center
02:51PM 34.4994 -90.8358 278° West 413 475 28,000  Level Memphis Center
02:52PM 34.5197 -90.9722 280° West 407 468 28,000  Level Memphis Center
02:53PM 34.5400 -91.1061 280° West 407 468 28,000  Level Memphis Center
02:54PM 34.5536 -91.2397 277° West 407 468 28,000  Level Memphis Center
02:55PM 34.5733 -91.3786 280° West 412 474 28,000  Level Memphis Center
02:56PM 34.5931 -91.5153 280° West 406 467 28,000  Level Memphis Center
02:57PM 34.6125 -91.6617 279° West 411 473 28,000  Level Memphis Center
02:58PM 34.6278 -91.7806 279° West 405 466 28,000  Level Memphis Center
02:59PM 34.6306 -91.9144 271° West 405 466 28,000  Level Memphis Center
03:00PM 34.6036 -92.0503 256° West 405 466 28,000  Level Memphis Center
03:01PM 34.5789 -92.1833 257° West 405 466 28,000  Level Memphis Center
03:02PM 34.5517 -92.3292 257° West 411 473 28,000  Level Memphis Center
03:03PM 34.5264 -92.4619 257° West 411 473 28,000  Level Memphis Center
03:04PM 34.4992 -92.5975 256° West 411 473 28,000  Level Memphis Center
03:05PM 34.4758 -92.7306 258° West 411 473 28,000  Level Memphis Center
03:06PM 34.4481 -92.8656 256° West 411 473 28,000  Level Memphis Center
03:07PM 34.4203 -92.9983 256° West 406 467 28,000  Level Memphis Center
03:08PM 34.3964 -93.1358 258° West 412 474 28,000  Level Memphis Center
03:09PM 34.3683 -93.2683 256° West 413 475 28,000  Level Memphis Center
03:10PM 34.3422 -93.4033 257° West 413 475 28,000  Level Memphis Center
03:11PM 34.3139 -93.5381 256° West 413 475 28,000  Level Memphis Center
03:12PM 34.2750 -93.6989 254° West 412 474 28,000  Level Fort Worth Center
03:13PM 34.2306 -93.8264 247° West 417 480 28,000  Level Fort Worth Center
03:14PM 34.1842 -93.9539 246° West 417 480 28,000  Level Fort Worth Center
03:15PM 34.1356 -94.0839 246° West 422 486 28,000  Level Fort Worth Center
03:16PM 34.0867 -94.2111 245° Southwest 422 486 28,000  Level Fort Worth Center
03:17PM 34.0397 -94.3381 246° West 422 486 28,000  Level Fort Worth Center
03:18PM 33.9886 -94.4678 245° Southwest 428 493 28,000  Level Fort Worth Center
03:19PM 33.9394 -94.5994 246° West 428 493 28,000  Level Fort Worth Center
03:20PM 33.8900 -94.7261 245° Southwest 428 493 28,000  Level Fort Worth Center
03:21PM 33.8425 -94.8528 246° West 428 493 28,000  Level Fort Worth Center
03:22PM 33.7931 -94.9842 246° West 428 493 28,000  Level Fort Worth Center
03:23PM 33.7411 -95.1106 244° Southwest 428 493 28,000  Level Fort Worth Center
03:24PM 33.6933 -95.2389 246° West 428 493 28,000 -660 Level Fort Worth Center
03:25PM 33.6414 -95.3700 245° Southwest 428 493 26,700 -2,100 Descending Fort Worth Center
03:26PM 33.5869 -95.5058 244° Southwest 439 505 23,900 -3,120 Descending Fort Worth Center
03:27PM 33.5308 -95.6617 247° West 459 528 20,500 -3,000 Descending Fort Worth Center
03:28PM 33.4864 -95.7722 244° Southwest 438 504 18,000 -2,700 Descending Fort Worth Center
03:29PM 33.4339 -95.9100 245° Southwest 421 484 15,200 -2,640 Descending Fort Worth Center
03:30PM 33.3914 -96.0153 244° Southwest 401 461 12,800 -2,220 Descending Fort Worth Center
03:31PM 33.3447 -96.1378 246° West 383 441 10,800 -1,560 Descending Fort Worth Center
03:32PM 33.3100 -96.2178 243° Southwest 327 376 9,700 -900 Descending Fort Worth Center
03:33PM 33.2733 -96.3128 245° Southwest 294 338 9,000 -360 Descending Fort Worth Center
03:34PM 33.2333 -96.3833 236° Southwest 284 327 9,000 -540 Level Dallas / Fort Worth TRACON
03:35PM 33.1833 -96.4500 228° Southwest 284 327 8,100 -780 Descending Dallas / Fort Worth TRACON
03:36PM 33.1500 -96.5333 244° Southwest 277 319 7,500 -780 Descending Dallas / Fort Worth TRACON
03:37PM 33.1106 -96.6025 236° Southwest 254 292 6,500 -1,140 Descending Fort Worth Center
03:38PM 33.0667 -96.6667 231° Southwest 227 261 5,300 -840 Descending Dallas / Fort Worth TRACON
03:39PM 33.0333 -96.7167 232° Southwest 232 267 5,000 -660 Descending Dallas / Fort Worth TRACON
03:40PM 32.9833 -96.7833 228° Southwest 230 265 4,000 -480 Descending Dallas / Fort Worth TRACON
03:41PM 33.0000 -96.8500 287° West 206 237 4,100 -360 Climbing Dallas / Fort Worth TRACON
03:42PM 32.9667 -96.8833 220° Southwest 167 192 3,400 -780 Descending Dallas / Fort Worth TRACON
03:43PM 32.9167 -96.9000 196° South 148 170 2,500 -1,020 Descending Dallas / Fort Worth TRACON
03:44PM 32.8833 -96.8833 157° South 140 161 1,300 -1,200 Descending Dallas / Fort Worth TRACON
03:47PM 32.8471 -96.8518 166° South  Level Estimated